< Typhoon 196805 1968 Season Typhoon 196807 >
Typhoon 196806 (OLIVE)
General InformationTrack Information on Google Maps || Disaster Info.ResourceGoogle EarthGE AnimationAtom FeedGeoJSON
Detalied Best Track (Time Zone = UTC)
Year Month Day Hour Lat. Long. Pressure (hPa) Wind (kt) Class Image Chart
1968 7 21 00 18.0 119.0 1004 0 2 -- Chart
1968 7 21 06 18.1 119.0 1002 0 2 -- Chart
1968 7 21 12 18.2 119.0 1000 0 2 -- Chart
1968 7 21 18 18.3 119.0 1000 0 2 -- Chart
1968 7 22 00 18.4 118.5 1000 0 2 -- Chart
1968 7 22 06 18.0 118.0 998 0 2 -- Chart
1968 7 22 12 17.6 117.5 996 0 2 -- Chart
1968 7 22 18 17.5 117.0 996 0 2 -- Chart
1968 7 23 00 17.5 116.5 998 0 2 -- Chart
1968 7 23 06 18.0 116.0 996 0 2 -- Chart
1968 7 23 12 18.0 115.0 994 0 2 -- Chart
1968 7 23 18 18.0 114.0 994 0 2 -- Chart
1968 7 24 00 18.0 113.0 994 0 2 -- Chart
1968 7 24 06 17.4 112.4 992 0 2 -- Chart
1968 7 24 12 16.3 112.5 992 0 2 -- Chart
1968 7 24 18 16.3 112.9 990 0 2 -- Chart
1968 7 25 00 16.5 113.5 988 0 9 -- Chart
1968 7 25 06 16.4 114.4 988 0 9 -- Chart
1968 7 25 12 16.5 115.3 988 0 9 -- Chart
1968 7 25 18 17.7 117.3 988 0 9 -- Chart
1968 7 26 00 19.5 118.5 988 0 2 -- Chart
1968 7 26 06 20.4 119.0 990 0 2 -- Chart
1968 7 26 12 21.0 120.0 992 0 2 -- Chart
1968 7 26 18 22.0 121.4 994 0 2 -- Chart
1968 7 27 00 23.7 122.0 994 0 2 -- Chart
1968 7 27 06 24.0 123.5 994 0 2 -- Chart
1968 7 27 12 24.0 126.0 996 0 2 -- Chart
1968 7 27 18 24.5 127.9 994 0 2 -- Chart
1968 7 28 00 25.0 129.0 994 0 2 -- Chart
Japan Meteorological Agency Best Track Data | Correction Date : 1989-06-01
< Typhoon 196805 1968 Season Typhoon 196807 >

Help